createdAt,value
2018-10-07T00:01:44.400Z,98.66
2018-10-07T00:04:12.714Z,99.05
2018-10-07T00:06:41.020Z,99.19
2018-10-07T00:09:09.802Z,99.12
2018-10-07T00:11:38.288Z,99.21
2018-10-07T00:14:06.764Z,99.13
2018-10-07T00:16:35.128Z,99.62
2018-10-07T00:19:03.513Z,99.49
2018-10-07T00:21:31.860Z,99.83
2018-10-07T00:24:00.220Z,99.68
2018-10-07T00:26:28.486Z,100.00
2018-10-07T00:28:56.819Z,99.41
2018-10-07T00:31:25.197Z,99.75
2018-10-07T00:33:53.529Z,99.94
2018-10-07T00:36:21.847Z,99.12
2018-10-07T00:38:50.108Z,99.12
2018-10-07T00:41:18.532Z,99.73
2018-10-07T00:43:46.916Z,100.00
2018-10-07T00:46:15.275Z,100.00
2018-10-07T00:48:43.642Z,100.00
2018-10-07T00:51:12.009Z,100.00
2018-10-07T00:53:40.338Z,100.00
2018-10-07T00:56:08.841Z,100.00
2018-10-07T00:58:37.176Z,100.00
2018-10-07T01:01:05.516Z,100.00
2018-10-07T01:03:33.799Z,100.00
2018-10-07T01:06:02.092Z,100.00
2018-10-07T01:08:30.412Z,100.00
2018-10-07T01:10:58.907Z,100.00
2018-10-07T01:13:27.194Z,100.00
2018-10-07T01:15:55.568Z,100.00
2018-10-07T01:18:23.924Z,100.00
2018-10-07T01:20:52.335Z,100.00
2018-10-07T01:23:20.664Z,100.00
2018-10-07T01:25:48.979Z,99.92
2018-10-07T01:28:17.276Z,99.55
2018-10-07T01:30:45.541Z,99.36
2018-10-07T01:33:13.848Z,98.69
2018-10-07T01:35:42.367Z,98.16
2018-10-07T01:38:10.761Z,98.17
2018-10-07T01:40:39.078Z,98.23
2018-10-07T01:43:07.467Z,98.64
2018-10-07T01:45:35.970Z,98.57
2018-10-07T01:48:04.472Z,98.52
2018-10-07T01:50:32.751Z,98.89
2018-10-07T01:53:01.106Z,99.26
2018-10-07T01:55:29.554Z,99.58
2018-10-07T01:57:57.895Z,99.30
2018-10-07T02:00:26.196Z,99.67
2018-10-07T02:02:54.490Z,99.87
2018-10-07T02:05:22.887Z,100.00
2018-10-07T02:07:51.201Z,99.40
2018-10-07T02:10:19.522Z,99.82
2018-10-07T02:12:47.822Z,99.68
2018-10-07T02:15:22.403Z,100.00
2018-10-07T02:17:50.700Z,100.00
2018-10-07T02:20:18.986Z,100.00
2018-10-07T02:22:47.296Z,100.00
2018-10-07T02:25:15.702Z,100.00
2018-10-07T02:27:44.441Z,100.00
2018-10-07T02:30:12.793Z,100.00
2018-10-07T02:32:41.085Z,100.00
2018-10-07T02:35:09.547Z,100.00
2018-10-07T02:37:38.021Z,100.00
2018-10-07T02:40:06.375Z,100.00
2018-10-07T02:42:34.705Z,100.00
2018-10-07T02:45:03.181Z,100.00
2018-10-07T02:47:31.618Z,100.00
2018-10-07T02:50:00.006Z,100.00
2018-10-07T02:52:33.768Z,100.00
2018-10-07T02:55:02.127Z,100.00
2018-10-07T02:57:30.476Z,100.00
2018-10-07T02:59:58.989Z,100.00
2018-10-07T03:02:27.232Z,100.00
2018-10-07T03:04:55.493Z,100.00
2018-10-07T03:07:23.977Z,100.00
2018-10-07T03:09:52.311Z,100.00
2018-10-07T03:12:20.631Z,100.00
2018-10-07T03:14:48.880Z,100.00
2018-10-07T03:17:17.185Z,100.00
2018-10-07T03:19:45.794Z,100.00
2018-10-07T03:22:14.096Z,100.00
2018-10-07T03:24:42.382Z,100.00
2018-10-07T03:27:10.713Z,100.00
2018-10-07T03:29:39.099Z,100.00
2018-10-07T03:32:07.626Z,100.00
2018-10-07T03:34:36.091Z,100.00
2018-10-07T03:37:04.465Z,100.00
2018-10-07T03:39:32.769Z,100.00
2018-10-07T03:42:01.082Z,100.00
2018-10-07T03:44:29.412Z,100.00
2018-10-07T03:46:57.772Z,100.00
2018-10-07T03:49:26.044Z,100.00
2018-10-07T03:51:54.576Z,100.00
2018-10-07T03:54:23.016Z,100.00
2018-10-07T03:56:51.291Z,100.00
2018-10-07T03:59:19.603Z,100.00
2018-10-07T04:01:48.035Z,100.00
2018-10-07T04:04:16.385Z,100.00
2018-10-07T04:06:44.716Z,100.00
2018-10-07T04:09:13.312Z,100.00
2018-10-07T04:11:42.999Z,100.00
2018-10-07T04:14:12.521Z,100.00
2018-10-07T04:16:40.887Z,100.00
2018-10-07T04:19:10.246Z,100.00
2018-10-07T04:21:38.535Z,100.00
2018-10-07T04:24:07.003Z,100.00
2018-10-07T04:26:35.279Z,100.00
2018-10-07T04:29:03.563Z,100.00
2018-10-07T04:31:32.037Z,100.00
2018-10-07T04:34:00.327Z,100.00
2018-10-07T04:36:28.910Z,100.00
2018-10-07T04:38:57.167Z,100.00
2018-10-07T04:41:25.576Z,100.00
2018-10-07T04:43:53.918Z,100.00
2018-10-07T04:46:22.504Z,100.00
2018-10-07T04:48:50.688Z,100.00
2018-10-07T04:51:19.832Z,100.00
2018-10-07T04:53:48.088Z,100.00
2018-10-07T04:56:16.380Z,100.00
2018-10-07T04:58:44.669Z,100.00
2018-10-07T05:01:13.154Z,100.00
2018-10-07T05:03:41.728Z,100.00
2018-10-07T05:06:10.067Z,100.00
2018-10-07T05:08:38.695Z,100.00
2018-10-07T05:11:07.051Z,100.00
2018-10-07T05:13:44.001Z,100.00
2018-10-07T05:16:14.806Z,100.00
2018-10-07T05:18:43.982Z,100.00
2018-10-07T05:21:12.518Z,100.00
2018-10-07T05:23:40.855Z,100.00
2018-10-07T05:26:09.858Z,100.00
2018-10-07T05:28:38.172Z,100.00
2018-10-07T05:31:06.841Z,100.00
2018-10-07T05:33:35.201Z,100.00
2018-10-07T05:36:03.524Z,100.00
2018-10-07T05:38:31.869Z,100.00
2018-10-07T05:41:00.160Z,100.00
2018-10-07T05:43:28.438Z,100.00
2018-10-07T05:45:56.716Z,100.00
2018-10-07T05:48:24.988Z,100.00
2018-10-07T05:50:53.335Z,100.00
2018-10-07T05:53:21.619Z,100.00
2018-10-07T05:55:50.214Z,100.00
2018-10-07T05:58:18.684Z,100.00
2018-10-07T06:00:47.162Z,100.00
2018-10-07T06:03:29.770Z,100.00
2018-10-07T06:05:58.214Z,100.00
2018-10-07T06:08:26.574Z,100.00
2018-10-07T06:10:55.171Z,100.00
2018-10-07T06:13:23.599Z,100.00
2018-10-07T06:15:51.893Z,100.00
2018-10-07T06:18:20.241Z,100.00
2018-10-07T06:20:48.592Z,100.00
2018-10-07T06:23:16.871Z,100.00
2018-10-07T06:25:45.319Z,100.00
2018-10-07T06:28:13.616Z,100.00
2018-10-07T06:30:42.013Z,100.00
2018-10-07T06:33:10.485Z,100.00
2018-10-07T06:35:38.791Z,100.00
2018-10-07T06:38:07.115Z,100.00
2018-10-07T06:40:35.507Z,100.00
2018-10-07T06:43:03.933Z,100.00
2018-10-07T06:45:32.300Z,100.00
2018-10-07T06:48:00.557Z,100.00
2018-10-07T06:50:29.173Z,100.00
2018-10-07T06:52:57.795Z,100.00
2018-10-07T06:55:26.377Z,100.00
2018-10-07T06:57:55.041Z,100.00
2018-10-07T07:00:23.440Z,100.00
2018-10-07T07:02:51.710Z,100.00
2018-10-07T07:05:19.957Z,100.00
2018-10-07T07:07:48.256Z,100.00
2018-10-07T07:10:16.596Z,100.00
2018-10-07T07:12:44.972Z,100.00
2018-10-07T07:15:13.280Z,99.91
2018-10-07T07:17:41.599Z,98.38
2018-10-07T07:20:09.941Z,96.89
2018-10-07T07:22:38.212Z,95.67
2018-10-07T07:25:06.513Z,96.09
2018-10-07T07:27:34.972Z,94.69
2018-10-07T07:30:03.586Z,93.85
2018-10-07T07:32:32.210Z,93.11
2018-10-07T07:35:00.885Z,92.08
2018-10-07T07:37:29.306Z,91.98
2018-10-07T07:39:57.607Z,89.92
2018-10-07T07:42:32.669Z,88.35
2018-10-07T07:45:00.892Z,87.94
2018-10-07T07:47:29.199Z,85.77
2018-10-07T07:49:57.673Z,84.30
2018-10-07T07:52:25.990Z,83.14
2018-10-07T07:54:54.451Z,82.30
2018-10-07T07:57:23.176Z,82.19
2018-10-07T07:59:51.561Z,79.94
2018-10-07T08:02:19.979Z,78.78
2018-10-07T08:04:48.361Z,77.89
2018-10-07T08:07:16.697Z,76.61
2018-10-07T08:09:45.060Z,75.47
2018-10-07T08:12:13.511Z,74.41
2018-10-07T08:14:41.806Z,73.26
2018-10-07T08:17:10.320Z,72.73
2018-10-07T08:19:38.612Z,71.85
2018-10-07T08:22:06.949Z,72.52
2018-10-07T08:24:35.250Z,72.11
2018-10-07T08:27:03.571Z,69.98
2018-10-07T08:29:32.027Z,68.96
2018-10-07T08:32:00.260Z,67.31
2018-10-07T08:34:28.566Z,65.66
2018-10-07T08:36:57.718Z,62.79
2018-10-07T08:39:26.197Z,63.37
2018-10-07T08:41:55.236Z,62.11
2018-10-07T08:44:24.059Z,62.35
2018-10-07T08:46:52.412Z,62.30
2018-10-07T08:49:20.848Z,63.15
2018-10-07T08:51:49.321Z,62.54
2018-10-07T08:54:17.702Z,61.89
2018-10-07T08:56:46.070Z,61.86
2018-10-07T08:59:15.800Z,61.88
2018-10-07T09:01:44.189Z,61.51
2018-10-07T09:04:12.496Z,60.94
2018-10-07T09:06:40.922Z,60.85
2018-10-07T09:09:10.229Z,60.94
2018-10-07T09:11:38.708Z,60.92
2018-10-07T09:14:07.075Z,61.65
2018-10-07T09:16:35.588Z,61.43
2018-10-07T09:19:04.189Z,60.78
2018-10-07T09:21:32.600Z,59.87
2018-10-07T09:24:01.726Z,59.48
2018-10-07T09:26:30.299Z,58.22
2018-10-07T09:28:58.766Z,58.27
2018-10-07T09:31:27.549Z,57.48
2018-10-07T09:33:55.860Z,57.45
2018-10-07T09:36:24.257Z,58.50
2018-10-07T09:38:52.663Z,58.78
2018-10-07T09:41:21.088Z,59.29
2018-10-07T09:43:49.518Z,59.23
2018-10-07T09:46:18.058Z,58.67
2018-10-07T09:48:46.500Z,57.96
2018-10-07T09:51:14.985Z,57.41
2018-10-07T09:53:43.945Z,55.87
2018-10-07T09:56:12.277Z,54.48
2018-10-07T09:58:40.823Z,53.97
2018-10-07T10:01:09.264Z,53.57
2018-10-07T10:03:37.623Z,53.00
2018-10-07T10:06:07.043Z,52.82
2018-10-07T10:08:35.284Z,53.06
2018-10-07T10:11:03.969Z,53.92
2018-10-07T10:13:32.390Z,53.17
2018-10-07T10:16:01.878Z,54.01
2018-10-07T10:18:40.831Z,53.38
2018-10-07T10:21:24.288Z,52.96
2018-10-07T10:23:59.834Z,52.55
2018-10-07T10:27:01.352Z,52.38
2018-10-07T10:29:30.442Z,53.27
2018-10-07T10:32:10.596Z,53.13
2018-10-07T10:36:53.953Z,52.89
2018-10-07T10:39:44.107Z,53.11
2018-10-07T10:42:20.214Z,52.75
2018-10-07T10:44:50.333Z,53.01
2018-10-07T10:47:33.118Z,52.50
2018-10-07T10:50:43.182Z,51.16
2018-10-07T10:53:52.408Z,50.93
2018-10-07T10:56:23.887Z,51.35
2018-10-07T10:59:05.264Z,51.67
2018-10-07T11:01:42.564Z,51.06
2018-10-07T11:04:22.295Z,51.44
2018-10-07T11:07:56.508Z,53.12
2018-10-07T11:10:43.010Z,50.73
2018-10-07T11:13:33.548Z,50.35
2018-10-07T11:16:15.139Z,50.36
2018-10-07T11:18:51.937Z,49.46
2018-10-07T11:23:40.679Z,50.23
2018-10-07T11:26:20.014Z,49.27
2018-10-07T11:28:55.940Z,48.19
2018-10-07T11:33:36.951Z,47.58
2018-10-07T11:36:12.865Z,45.51
2018-10-07T11:39:16.301Z,44.28
2018-10-07T11:41:54.486Z,43.05
2018-10-07T11:45:09.639Z,43.21
2018-10-07T11:49:53.945Z,39.64
2018-10-07T11:52:33.468Z,39.73
2018-10-07T11:55:03.947Z,37.62
2018-10-07T11:57:32.368Z,37.04
2018-10-07T12:00:01.068Z,35.68
2018-10-07T12:02:29.518Z,34.68
2018-10-07T12:04:57.856Z,33.62
2018-10-07T12:07:35.927Z,33.03
2018-10-07T12:10:07.888Z,33.48
2018-10-07T12:12:38.476Z,33.09
2018-10-07T12:15:08.124Z,33.19
2018-10-07T12:17:37.060Z,32.63
2018-10-07T12:20:13.937Z,34.29
2018-10-07T12:22:43.700Z,33.58
2018-10-07T12:25:18.963Z,32.68
2018-10-07T12:27:55.203Z,32.56
2018-10-07T12:30:32.106Z,33.52
2018-10-07T12:33:04.326Z,33.30
2018-10-07T12:35:32.621Z,31.92
2018-10-07T12:38:00.940Z,31.67
2018-10-07T12:40:29.344Z,34.15
2018-10-07T12:42:57.621Z,33.50
2018-10-07T12:45:25.968Z,31.21
2018-10-07T12:47:54.270Z,30.01
2018-10-07T12:50:22.713Z,31.09
2018-10-07T12:52:52.100Z,31.06
2018-10-07T12:55:20.615Z,29.99
2018-10-07T12:57:48.876Z,28.92
2018-10-07T13:00:17.264Z,27.75
2018-10-07T13:02:45.556Z,27.10
2018-10-07T13:05:13.843Z,26.28
2018-10-07T13:07:42.112Z,26.82
2018-10-07T13:10:10.533Z,26.92
2018-10-07T13:12:38.800Z,27.43
2018-10-07T13:15:07.116Z,26.18
2018-10-07T13:17:35.455Z,26.25
2018-10-07T13:20:10.465Z,28.21
2018-10-07T13:22:38.736Z,27.73
2018-10-07T13:25:07.060Z,27.82
2018-10-07T13:27:35.366Z,28.02
2018-10-07T13:30:03.674Z,28.96
2018-10-07T13:32:31.989Z,28.87
2018-10-07T13:35:00.268Z,28.79
2018-10-07T13:37:28.555Z,27.86
2018-10-07T13:39:56.833Z,28.68
2018-10-07T13:42:25.121Z,28.56
2018-10-07T13:44:53.410Z,28.16
2018-10-07T13:47:21.661Z,27.39
2018-10-07T13:49:49.899Z,26.83
2018-10-07T13:52:18.171Z,28.11
2018-10-07T13:54:46.465Z,28.32
2018-10-07T13:57:14.726Z,28.39
2018-10-07T13:59:43.017Z,27.76
2018-10-07T14:02:11.331Z,26.43
2018-10-07T14:04:39.562Z,26.22
2018-10-07T14:07:07.888Z,25.70
2018-10-07T14:09:36.093Z,25.88
2018-10-07T14:12:04.363Z,27.36
2018-10-07T14:14:33.139Z,28.50
2018-10-07T14:17:01.444Z,28.90
2018-10-07T14:19:29.744Z,29.65
2018-10-07T14:21:58.013Z,29.26
2018-10-07T14:24:26.319Z,28.97
2018-10-07T14:26:54.629Z,29.10
2018-10-07T14:29:22.928Z,29.25
2018-10-07T14:31:51.238Z,29.89
2018-10-07T14:34:19.484Z,29.63
2018-10-07T14:36:47.834Z,30.46
2018-10-07T14:39:16.164Z,30.90
2018-10-07T14:41:44.411Z,31.23
2018-10-07T14:44:12.722Z,31.67
2018-10-07T14:46:41.085Z,32.09
2018-10-07T14:49:09.439Z,31.99
2018-10-07T14:51:37.761Z,32.60
2018-10-07T14:54:06.101Z,31.52
2018-10-07T14:56:34.387Z,32.71
2018-10-07T14:59:02.698Z,33.44
2018-10-07T15:01:31.016Z,34.14
2018-10-07T15:03:59.256Z,35.12
2018-10-07T15:06:27.558Z,34.42
2018-10-07T15:08:55.843Z,33.47
2018-10-07T15:11:24.176Z,32.28
2018-10-07T15:13:52.416Z,34.08
2018-10-07T15:16:20.687Z,33.86
2018-10-07T15:18:49.098Z,33.46
2018-10-07T15:21:17.495Z,33.29
2018-10-07T15:23:45.829Z,33.01
2018-10-07T15:26:14.090Z,33.86
2018-10-07T15:28:42.364Z,34.79
2018-10-07T15:31:10.692Z,34.60
2018-10-07T15:33:38.972Z,35.19
2018-10-07T15:36:07.266Z,34.91
2018-10-07T15:38:35.536Z,34.88
2018-10-07T15:41:03.999Z,34.46
2018-10-07T15:43:37.054Z,35.39
2018-10-07T15:46:05.623Z,36.31
2018-10-07T15:48:34.160Z,37.59
2018-10-07T15:51:02.421Z,39.63
2018-10-07T15:53:31.121Z,41.12
2018-10-07T15:56:00.530Z,42.23
2018-10-07T15:58:29.198Z,42.34
2018-10-07T16:00:57.829Z,43.97
2018-10-07T16:03:26.634Z,44.60
2018-10-07T16:05:54.923Z,45.32
2018-10-07T16:08:23.225Z,46.00
2018-10-07T16:10:51.507Z,45.64
2018-10-07T16:13:19.783Z,46.09
2018-10-07T16:15:48.602Z,46.73
2018-10-07T16:18:16.979Z,47.09
2018-10-07T16:20:45.300Z,48.09
2018-10-07T16:23:13.700Z,49.16
2018-10-07T16:25:42.150Z,49.23
2018-10-07T16:28:10.579Z,50.58
2018-10-07T16:30:39.140Z,50.64
2018-10-07T16:33:07.437Z,51.43
2018-10-07T16:35:35.872Z,52.25
2018-10-07T16:38:04.173Z,53.13
2018-10-07T16:40:32.595Z,53.32
2018-10-07T16:43:01.303Z,54.35
2018-10-07T16:45:29.578Z,54.73
2018-10-07T16:47:57.956Z,55.49
2018-10-07T16:50:26.271Z,55.44
2018-10-07T16:52:55.696Z,56.26
2018-10-07T16:55:24.067Z,56.67
2018-10-07T16:57:52.524Z,57.31
2018-10-07T17:00:20.952Z,57.65
2018-10-07T17:02:49.478Z,57.75
2018-10-07T17:05:17.961Z,58.58
2018-10-07T17:07:46.471Z,58.98
2018-10-07T17:10:14.863Z,59.19
2018-10-07T17:12:43.372Z,59.22
2018-10-07T17:15:12.273Z,59.43
2018-10-07T17:17:40.567Z,59.88
2018-10-07T17:20:08.838Z,60.68
2018-10-07T17:22:37.158Z,60.63
2018-10-07T17:25:05.564Z,60.98
2018-10-07T17:27:34.333Z,61.42
2018-10-07T17:30:02.841Z,62.26
2018-10-07T17:32:32.153Z,62.99
2018-10-07T17:35:00.476Z,63.36
2018-10-07T17:37:28.785Z,63.63
2018-10-07T17:39:57.158Z,64.24
2018-10-07T17:42:25.817Z,64.46
2018-10-07T17:44:54.701Z,64.65
2018-10-07T17:47:23.665Z,65.00
2018-10-07T17:49:52.156Z,65.32
2018-10-07T17:52:20.665Z,65.87
2018-10-07T17:54:48.993Z,66.60
2018-10-07T17:57:17.544Z,67.06
2018-10-07T17:59:46.081Z,67.68
2018-10-07T18:02:14.369Z,68.27
2018-10-07T18:04:42.684Z,68.65
2018-10-07T18:07:11.223Z,69.35
2018-10-07T18:09:39.550Z,70.11
2018-10-07T18:12:08.008Z,70.13
2018-10-07T18:14:37.084Z,70.89
2018-10-07T18:17:07.838Z,71.26
2018-10-07T18:19:36.174Z,71.81
2018-10-07T18:22:04.644Z,72.17
2018-10-07T18:24:33.481Z,72.04
2018-10-07T18:27:01.892Z,72.72
2018-10-07T18:29:30.212Z,73.02
2018-10-07T18:31:58.572Z,73.34
2018-10-07T18:34:26.959Z,73.73
2018-10-07T18:36:56.366Z,74.59
2018-10-07T18:39:32.996Z,75.29
2018-10-07T18:42:05.022Z,76.51
2018-10-07T18:44:36.171Z,76.77
2018-10-07T18:47:05.653Z,77.54
2018-10-07T18:49:38.934Z,78.43
2018-10-07T18:52:10.072Z,78.91
2018-10-07T18:54:39.246Z,79.83
2018-10-07T18:57:07.979Z,81.27
2018-10-07T18:59:36.393Z,82.00
2018-10-07T19:02:05.310Z,82.63
2018-10-07T19:04:34.235Z,84.35
2018-10-07T19:07:02.534Z,84.96
2018-10-07T19:09:30.909Z,84.89
2018-10-07T19:11:59.591Z,86.09
2018-10-07T19:14:28.149Z,86.59
2018-10-07T19:16:56.487Z,86.67
2018-10-07T19:19:24.763Z,88.50
2018-10-07T19:21:53.180Z,88.88
2018-10-07T19:24:22.544Z,88.89
2018-10-07T19:26:50.965Z,89.95
2018-10-07T19:29:19.241Z,90.05
2018-10-07T19:31:47.546Z,89.75
2018-10-07T19:34:16.024Z,89.51
2018-10-07T19:36:44.518Z,89.28
2018-10-07T19:39:13.127Z,89.67
2018-10-07T19:41:42.223Z,89.64
2018-10-07T19:44:10.655Z,90.83
2018-10-07T19:46:39.030Z,91.69
2018-10-07T19:49:07.423Z,90.71
2018-10-07T19:51:36.061Z,90.71
2018-10-07T19:54:04.417Z,90.50
2018-10-07T19:56:32.680Z,90.35
2018-10-07T19:59:01.149Z,90.49
2018-10-07T20:01:29.515Z,90.49
2018-10-07T20:03:57.892Z,89.55
2018-10-07T20:06:26.776Z,89.54
2018-10-07T20:08:55.023Z,90.04
2018-10-07T20:11:23.423Z,89.78
2018-10-07T20:13:51.877Z,90.76
2018-10-07T20:16:20.214Z,90.15
2018-10-07T20:18:48.538Z,90.19
2018-10-07T20:21:16.975Z,90.06
2018-10-07T20:23:45.393Z,90.09
2018-10-07T20:26:13.884Z,90.36
2018-10-07T20:28:42.183Z,90.85
2018-10-07T20:31:10.448Z,90.26
2018-10-07T20:33:38.751Z,91.47
2018-10-07T20:36:07.350Z,91.58
2018-10-07T20:38:35.694Z,91.20
2018-10-07T20:41:04.280Z,91.38
2018-10-07T20:43:32.543Z,92.22
2018-10-07T20:46:00.862Z,92.91
2018-10-07T20:48:29.244Z,92.57
2018-10-07T20:50:57.662Z,93.51
2018-10-07T20:53:26.088Z,93.08
2018-10-07T20:55:54.414Z,93.72
2018-10-07T20:58:23.038Z,94.14
2018-10-07T21:00:51.514Z,93.99
2018-10-07T21:03:20.005Z,93.88
2018-10-07T21:05:48.749Z,94.77
2018-10-07T21:08:17.955Z,96.21
2018-10-07T21:10:46.784Z,96.07
2018-10-07T21:13:15.206Z,96.16
2018-10-07T21:15:43.652Z,97.63
2018-10-07T21:18:12.062Z,99.06
2018-10-07T21:20:40.484Z,98.17
2018-10-07T21:23:08.946Z,98.94
2018-10-07T21:25:37.377Z,97.90
2018-10-07T21:28:06.515Z,99.15
2018-10-07T21:30:34.876Z,100.00
2018-10-07T21:33:04.493Z,100.00
2018-10-07T21:35:33.308Z,100.00
2018-10-07T21:38:01.932Z,100.00
2018-10-07T21:40:31.553Z,100.00
2018-10-07T21:42:59.976Z,100.00
2018-10-07T21:45:28.732Z,100.00
2018-10-07T21:47:57.013Z,100.00
2018-10-07T21:50:25.520Z,100.00
2018-10-07T21:52:59.253Z,100.00
2018-10-07T21:55:28.647Z,100.00
2018-10-07T21:57:57.317Z,100.00
2018-10-07T22:00:25.794Z,100.00
2018-10-07T22:02:55.137Z,100.00
2018-10-07T22:05:23.610Z,100.00
2018-10-07T22:07:51.867Z,100.00
2018-10-07T22:10:20.215Z,100.00
2018-10-07T22:12:48.827Z,100.00
2018-10-07T22:15:17.194Z,100.00
2018-10-07T22:17:46.562Z,100.00
2018-10-07T22:20:14.941Z,100.00
2018-10-07T22:22:45.360Z,100.00
2018-10-07T22:25:30.308Z,100.00
2018-10-07T22:27:58.839Z,100.00
2018-10-07T22:30:27.592Z,100.00
2018-10-07T22:32:56.920Z,100.00
2018-10-07T22:35:30.796Z,100.00
2018-10-07T22:38:02.620Z,100.00
2018-10-07T22:40:31.184Z,100.00
2018-10-07T22:42:59.919Z,100.00
2018-10-07T22:45:28.357Z,100.00
2018-10-07T22:47:56.748Z,100.00
2018-10-07T22:50:25.243Z,100.00
2018-10-07T22:52:53.731Z,100.00
2018-10-07T22:55:22.166Z,100.00
2018-10-07T22:57:50.580Z,100.00
2018-10-07T23:00:19.122Z,100.00
2018-10-07T23:02:47.484Z,100.00
2018-10-07T23:05:15.949Z,100.00
2018-10-07T23:07:44.402Z,100.00
2018-10-07T23:10:12.824Z,100.00
2018-10-07T23:12:41.284Z,100.00
2018-10-07T23:15:10.459Z,100.00
2018-10-07T23:17:38.959Z,100.00
2018-10-07T23:20:07.494Z,100.00
2018-10-07T23:22:35.920Z,100.00
2018-10-07T23:25:04.385Z,100.00
2018-10-07T23:27:32.882Z,100.00
2018-10-07T23:30:03.418Z,100.00
2018-10-07T23:32:31.887Z,100.00
2018-10-07T23:35:00.271Z,100.00
2018-10-07T23:37:28.837Z,100.00
2018-10-07T23:39:57.236Z,100.00
2018-10-07T23:42:26.362Z,100.00
2018-10-07T23:44:54.786Z,100.00
2018-10-07T23:47:23.296Z,100.00
2018-10-07T23:49:54.861Z,100.00
2018-10-07T23:52:23.392Z,100.00
2018-10-07T23:54:51.806Z,100.00
2018-10-07T23:57:20.197Z,100.00
2018-10-07T23:59:48.683Z,100.00
